Overview Statistics Trail Chart Weather Telemetry Raw packets
 

This is the latest recevied weather packets stored in our database for station/object IZ7EXI-13. If no packets are shown the sender has not sent any weather packets the latest 10 day(s).

<< 29 30 31 32 33 34 35 >>
Time Temp. Humidity Pressure Rain* Wind** Luminosity Snow
1788114938 29.44° C 82% 1014.4 hPa - - - -
1788114038 29.44° C 80% 1013.9 hPa - - - -
1788113138 30° C 77% 1013.7 hPa - - - -
1788112238 30° C 76% 1013.3 hPa - - - -
1788111338 30° C 76% 1013.3 hPa - - - -
1788110437 30.56° C 72% 1013.3 hPa - - - -
1788109537 31.11° C 68% 1013.3 hPa - - - -
1788108637 31.67° C 66% 1013.2 hPa - - - -
1788107737 31.11° C 67% 1013 hPa - - - -
1788106836 31.67° C 63% 1013.1 hPa - - - -
1788105936 31.67° C 63% 1013.1 hPa - - - -
1788105036 32.22° C 59% 1012.9 hPa - - - -
1788104169 32.78° C 58% 1013.2 hPa - - - -
1788104136 32.78° C 58% 1013.2 hPa - - - -
1788103269 33.33° C 55% 1013.2 hPa - - - -
1788103236 33.33° C 55% 1013.2 hPa - - - -
1788102335 34.44° C 52% 1013.2 hPa - - - -
1788101469 35° C 50% 1013.1 hPa - - - -
1788101435 35° C 50% 1013.1 hPa - - - -
1788100535 35.56° C 51% 1013.2 hPa - - - -
1788099635 35.56° C 51% 1013.3 hPa - - - -
1788098735 35.56° C 50% 1013.3 hPa - - - -
1788097833 35.56° C 51% 1013.2 hPa - - - -
1788096933 36.67° C 47% 1013.3 hPa - - - -
1788096033 36.67° C 49% 1013.4 hPa - - - -

* Rain since midnight (hover to see other rain measurements)
** Current wind speed in m/s (hover to see current wind gust speed)